Time,TemperatureF,DewpointF,PressureIn,WindDirection,WindDirectionDegrees,WindSpeedMPH,WindSpeedGustMPH,Humidity,HourlyPrecipIn,Conditions,Clouds,dailyrainin,SoftwareType,DateUTC
2013-03-29 00:10:00,59.8,22.0,29.91,West,263,5.0,7.0,23,0.00,,,0.00,weatherlink.com 1.10,2013-03-29 06:10:00,
2013-03-29 00:24:00,57.1,20.0,29.92,West,266,3.0,5.0,24,0.00,,,0.00,weatherlink.com 1.10,2013-03-29 06:24:00,
2013-03-29 00:39:00,56.6,21.0,29.92,West,263,1.0,2.0,25,0.00,,,0.00,weatherlink.com 1.10,2013-03-29 06:39:00,
2013-03-29 00:54:00,57.3,22.0,29.92,West,263,0.0,1.0,25,0.00,,,0.00,weatherlink.com 1.10,2013-03-29 06:54:00,
2013-03-29 01:09:00,56.7,16.0,29.92,NW,318,2.0,6.0,20,0.00,,,0.00,weatherlink.com 1.10,2013-03-29 07:09:00,
2013-03-29 01:24:00,55.9,15.0,29.92,NW,314,1.0,4.0,20,0.00,,,0.00,weatherlink.com 1.10,2013-03-29 07:24:00,
2013-03-29 01:39:00,56.8,15.0,29.93,NW,307,5.0,12.0,19,0.00,,,0.00,weatherlink.com 1.10,2013-03-29 07:39:00,
2013-03-29 01:54:00,56.7,15.0,29.93,NW,315,3.0,8.0,19,0.00,,,0.00,weatherlink.com 1.10,2013-03-29 07:54:00,
2013-03-29 02:09:00,57.0,15.0,29.93,NNW,333,6.0,10.0,19,0.00,,,0.00,weatherlink.com 1.10,2013-03-29 08:09:00,
2013-03-29 02:24:00,55.9,15.0,29.93,West,278,4.0,5.0,20,0.00,,,0.00,weatherlink.com 1.10,2013-03-29 08:24:00,
2013-03-29 02:39:00,53.5,16.0,29.93,SE,140,1.0,7.0,23,0.00,,,0.00,weatherlink.com 1.10,2013-03-29 08:39:00,
2013-03-29 02:54:00,52.7,16.0,29.93,SE,140,2.0,4.0,23,0.00,,,0.00,weatherlink.com 1.10,2013-03-29 08:54:00,
2013-03-29 03:09:00,51.8,16.0,29.94,SE,142,1.0,3.0,24,0.00,,,0.00,weatherlink.com 1.10,2013-03-29 09:09:00,
2013-03-29 03:24:00,51.9,16.0,29.94,South,182,1.0,3.0,24,0.00,,,0.00,weatherlink.com 1.10,2013-03-29 09:24:00,
2013-03-29 03:39:00,51.3,15.0,29.95,SSE,167,1.0,7.0,24,0.00,,,0.00,weatherlink.com 1.10,2013-03-29 09:39:00,
2013-03-29 03:55:00,49.9,15.0,29.95,SE,142,3.0,4.0,25,0.00,,,0.00,weatherlink.com 1.10,2013-03-29 09:55:00,
2013-03-29 04:10:00,50.1,15.0,29.95,SE,137,1.0,2.0,25,0.00,,,0.00,weatherlink.com 1.10,2013-03-29 10:10:00,
2013-03-29 04:25:00,50.0,15.0,29.95,SE,137,4.0,4.0,25,0.00,,,0.00,weatherlink.com 1.10,2013-03-29 10:25:00,
2013-03-29 04:40:00,50.0,14.0,29.95,SE,136,1.0,4.0,24,0.00,,,0.00,weatherlink.com 1.10,2013-03-29 10:40:00,
2013-03-29 04:55:00,48.1,15.0,29.95,SE,135,2.0,2.0,26,0.00,,,0.00,weatherlink.com 1.10,2013-03-29 10:55:00,
2013-03-29 05:10:00,48.6,16.0,29.96,SE,133,3.0,4.0,27,0.00,,,0.00,weatherlink.com 1.10,2013-03-29 11:10:00,
2013-03-29 05:25:00,47.8,15.0,29.96,SE,133,2.0,4.0,27,0.00,,,0.00,weatherlink.com 1.10,2013-03-29 11:25:00,
2013-03-29 05:40:00,47.4,15.0,29.96,SE,133,1.0,3.0,27,0.00,,,0.00,weatherlink.com 1.10,2013-03-29 11:40:00,
2013-03-29 05:55:00,45.9,13.0,29.97,SE,134,0.0,5.0,27,0.00,,,0.00,weatherlink.com 1.10,2013-03-29 11:55:00,
2013-03-29 06:10:00,45.4,14.0,29.98,West,269,4.0,6.0,28,0.00,,,0.00,weatherlink.com 1.10,2013-03-29 12:10:00,
2013-03-29 06:25:00,45.5,13.0,29.98,West,269,2.0,4.0,27,0.00,,,0.00,weatherlink.com 1.10,2013-03-29 12:25:00,
2013-03-29 06:40:00,45.6,13.0,29.98,West,270,0.0,4.0,27,0.00,,,0.00,weatherlink.com 1.10,2013-03-29 12:40:00,
2013-03-29 06:55:00,43.8,14.0,29.98,West,261,3.0,6.0,30,0.00,,,0.00,weatherlink.com 1.10,2013-03-29 12:55:00,
2013-03-29 07:10:00,44.9,13.0,29.99,West,261,2.0,5.0,28,0.00,,,0.00,weatherlink.com 1.10,2013-03-29 13:10:00,
2013-03-29 07:25:00,43.5,15.0,30.00,SSW,202,3.0,7.0,32,0.00,,,0.00,weatherlink.com 1.10,2013-03-29 13:25:00,
2013-03-29 07:40:00,44.4,15.0,30.00,SSW,194,1.0,3.0,31,0.00,,,0.00,weatherlink.com 1.10,2013-03-29 13:40:00,
2013-03-29 07:55:00,44.7,16.0,30.02,SSW,192,2.0,3.0,31,0.00,,,0.00,weatherlink.com 1.10,2013-03-29 13:55:00,
2013-03-29 08:10:00,45.4,16.0,30.02,SSW,192,2.0,5.0,31,0.00,,,0.00,weatherlink.com 1.10,2013-03-29 14:10:00,
2013-03-29 08:25:00,47.6,17.0,30.02,SSW,192,0.0,6.0,30,0.00,,,0.00,weatherlink.com 1.10,2013-03-29 14:25:00,
2013-03-29 08:40:00,50.1,17.0,30.02,South,190,4.0,5.0,27,0.00,,,0.00,weatherlink.com 1.10,2013-03-29 14:40:00,
2013-03-29 08:55:00,52.4,17.0,30.02,South,186,3.0,6.0,25,0.00,,,0.00,weatherlink.com 1.10,2013-03-29 14:55:00,
2013-03-29 09:10:00,54.9,19.0,30.02,South,173,4.0,5.0,24,0.00,,,0.00,weatherlink.com 1.10,2013-03-29 15:10:00,
2013-03-29 09:25:00,56.4,19.0,30.02,SSE,168,2.0,5.0,23,0.00,,,0.00,weatherlink.com 1.10,2013-03-29 15:25:00,
2013-03-29 09:40:00,59.2,20.0,30.02,SSE,159,3.0,4.0,22,0.00,,,0.00,weatherlink.com 1.10,2013-03-29 15:40:00,
2013-03-29 09:55:00,60.3,21.0,30.01,SSE,156,0.0,6.0,22,0.00,,,0.00,weatherlink.com 1.10,2013-03-29 15:55:00,
2013-03-29 10:10:00,61.5,21.0,30.00,South,170,5.0,8.0,21,0.00,,,0.00,weatherlink.com 1.10,2013-03-29 16:10:00,
2013-03-29 10:25:00,62.3,22.0,30.00,SSE,166,2.0,9.0,21,0.00,,,0.00,weatherlink.com 1.10,2013-03-29 16:25:00,
2013-03-29 10:40:00,62.9,21.0,30.00,South,175,7.0,11.0,20,0.00,,,0.00,weatherlink.com 1.10,2013-03-29 16:40:00,
2013-03-29 10:55:00,64.1,22.0,29.99,SW,231,7.0,13.0,20,0.00,,,0.00,weatherlink.com 1.10,2013-03-29 16:55:00,
2013-03-29 11:10:00,64.3,21.0,29.99,SSE,166,3.0,12.0,19,0.00,,,0.00,weatherlink.com 1.10,2013-03-29 17:10:00,
2013-03-29 11:25:00,65.5,22.0,29.99,South,191,2.0,12.0,19,0.00,,,0.00,weatherlink.com 1.10,2013-03-29 17:25:00,
2013-03-29 11:40:00,65.9,21.0,29.98,SW,227,5.0,15.0,18,0.00,,,0.00,weatherlink.com 1.10,2013-03-29 17:40:00,
2013-03-29 12:11:00,66.1,21.0,29.97,South,189,9.0,12.0,18,0.00,,,0.00,weatherlink.com 1.10,2013-03-29 18:11:00,
2013-03-29 12:26:00,66.3,21.0,29.97,South,190,6.0,18.0,18,0.00,,,0.00,weatherlink.com 1.10,2013-03-29 18:26:00,
2013-03-29 12:41:00,66.2,21.0,29.96,SSE,163,3.0,12.0,18,0.00,,,0.00,weatherlink.com 1.10,2013-03-29 18:41:00,
2013-03-29 12:56:00,66.6,20.0,29.95,SW,219,9.0,15.0,17,0.00,,,0.00,weatherlink.com 1.10,2013-03-29 18:56:00,
2013-03-29 13:11:00,68.1,20.0,29.94,ESE,112,8.0,17.0,16,0.00,,,0.00,weatherlink.com 1.10,2013-03-29 19:11:00,
2013-03-29 13:26:00,68.6,19.0,29.93,South,180,4.0,17.0,15,0.00,,,0.00,weatherlink.com 1.10,2013-03-29 19:26:00,
2013-03-29 13:56:00,70.2,19.0,29.91,SW,215,11.0,14.0,14,0.00,,,0.00,weatherlink.com 1.10,2013-03-29 19:56:00,
2013-03-29 14:11:00,69.1,16.0,29.92,WNW,288,7.0,14.0,13,0.00,,,0.00,weatherlink.com 1.10,2013-03-29 20:11:00,
2013-03-29 14:41:00,69.4,14.0,29.90,WSW,254,4.0,15.0,12,0.00,,,0.00,weatherlink.com 1.10,2013-03-29 20:41:00,
2013-03-29 15:11:00,70.4,15.0,29.89,WSW,251,10.0,14.0,12,0.00,,,0.00,weatherlink.com 1.10,2013-03-29 21:11:00,
2013-03-29 15:41:00,71.5,18.0,29.88,WNW,289,4.0,17.0,13,0.00,,,0.00,weatherlink.com 1.10,2013-03-29 21:41:00,
2013-03-29 15:56:00,72.5,19.0,29.88,WNW,294,9.0,14.0,13,0.00,,,0.00,weatherlink.com 1.10,2013-03-29 21:56:00,
2013-03-29 16:11:00,71.4,18.0,29.87,SW,227,12.0,17.0,13,0.00,,,0.00,weatherlink.com 1.10,2013-03-29 22:11:00,
2013-03-29 16:26:00,71.0,19.0,29.87,SSW,211,0.0,10.0,14,0.00,,,0.00,weatherlink.com 1.10,2013-03-29 22:26:00,
2013-03-29 16:41:00,70.8,19.0,29.87,SW,221,5.0,10.0,14,0.00,,,0.00,weatherlink.com 1.10,2013-03-29 22:41:00,
2013-03-29 16:56:00,71.1,19.0,29.86,SW,223,9.0,11.0,14,0.00,,,0.00,weatherlink.com 1.10,2013-03-29 22:56:00,
2013-03-29 17:11:00,72.0,18.0,29.86,West,259,0.0,6.0,13,0.00,,,0.00,weatherlink.com 1.10,2013-03-29 23:11:00,
2013-03-29 17:26:00,72.8,19.0,29.86,South,175,10.0,14.0,13,0.00,,,0.00,weatherlink.com 1.10,2013-03-29 23:26:00,
2013-03-29 17:41:00,72.4,19.0,29.86,West,269,7.0,11.0,13,0.00,,,0.00,weatherlink.com 1.10,2013-03-29 23:41:00,
2013-03-29 17:56:00,71.9,18.0,29.86,WNW,303,14.0,17.0,13,0.00,,,0.00,weatherlink.com 1.10,2013-03-29 23:56:00,
2013-03-29 18:11:00,71.7,18.0,29.86,NW,305,12.0,16.0,13,0.00,,,0.00,weatherlink.com 1.10,2013-03-30 00:11:00,
2013-03-29 18:26:00,71.3,18.0,29.86,North,5,9.0,16.0,13,0.00,,,0.00,weatherlink.com 1.10,2013-03-30 00:26:00,
2013-03-29 18:41:00,71.3,16.0,29.86,North,355,3.0,16.0,12,0.00,,,0.00,weatherlink.com 1.10,2013-03-30 00:41:00,
2013-03-29 18:56:00,71.2,16.0,29.87,WNW,292,10.0,17.0,12,0.00,,,0.00,weatherlink.com 1.10,2013-03-30 00:56:00,
2013-03-29 19:11:00,70.6,15.0,29.87,NW,304,12.0,15.0,12,0.00,,,0.00,weatherlink.com 1.10,2013-03-30 01:11:00,
2013-03-29 19:26:00,69.8,17.0,29.87,WNW,287,5.0,13.0,13,0.00,,,0.00,weatherlink.com 1.10,2013-03-30 01:26:00,
2013-03-29 19:41:00,68.9,16.0,29.87,WNW,293,4.0,10.0,13,0.00,,,0.00,weatherlink.com 1.10,2013-03-30 01:41:00,
2013-03-29 19:56:00,66.9,16.0,29.88,WNW,285,6.0,7.0,14,0.00,,,0.00,weatherlink.com 1.10,2013-03-30 01:56:00,
2013-03-29 20:11:00,66.0,15.0,29.89,WNW,288,4.0,7.0,14,0.00,,,0.00,weatherlink.com 1.10,2013-03-30 02:11:00,
2013-03-29 20:26:00,66.1,17.0,29.89,WNW,298,3.0,9.0,15,0.00,,,0.00,weatherlink.com 1.10,2013-03-30 02:26:00,
2013-03-29 20:41:00,66.4,17.0,29.90,NW,305,5.0,8.0,15,0.00,,,0.00,weatherlink.com 1.10,2013-03-30 02:41:00,
2013-03-29 21:11:00,64.9,17.0,29.91,WNW,298,5.0,6.0,16,0.00,,,0.00,weatherlink.com 1.10,2013-03-30 03:11:00,
2013-03-29 21:26:00,63.8,17.0,29.91,NW,309,6.0,7.0,16,0.00,,,0.00,weatherlink.com 1.10,2013-03-30 03:26:00,
2013-03-29 21:41:00,63.6,18.0,29.92,NW,317,3.0,7.0,17,0.00,,,0.00,weatherlink.com 1.10,2013-03-30 03:41:00,
2013-03-29 21:56:00,62.5,17.0,29.93,NW,319,5.0,7.0,17,0.00,,,0.00,weatherlink.com 1.10,2013-03-30 03:56:00,
2013-03-29 22:11:00,61.3,17.0,29.93,NW,313,4.0,6.0,18,0.00,,,0.00,weatherlink.com 1.10,2013-03-30 04:11:00,
2013-03-29 22:26:00,60.3,16.0,29.93,NW,320,5.0,7.0,18,0.00,,,0.00,weatherlink.com 1.10,2013-03-30 04:26:00,
2013-03-29 22:41:00,59.6,17.0,29.94,NW,308,0.0,6.0,19,0.00,,,0.00,weatherlink.com 1.10,2013-03-30 04:41:00,
2013-03-29 22:56:00,57.4,16.0,29.95,NNW,330,1.0,5.0,20,0.00,,,0.00,weatherlink.com 1.10,2013-03-30 04:56:00,
2013-03-29 23:11:00,56.5,17.0,29.95,NE,52,5.0,6.0,21,0.00,,,0.00,weatherlink.com 1.10,2013-03-30 05:11:00,
2013-03-29 23:26:00,55.1,17.0,29.95,NNE,23,7.0,11.0,22,0.00,,,0.00,weatherlink.com 1.10,2013-03-30 05:26:00,
2013-03-29 23:41:00,56.2,17.0,29.96,NNE,26,7.0,9.0,21,0.00,,,0.00,weatherlink.com 1.10,2013-03-30 05:41:00,
2013-03-29 23:56:00,55.8,17.0,29.96,NNE,29,7.0,12.0,22,0.00,,,0.00,weatherlink.com 1.10,2013-03-30 05:56:00,